createdAt,value
2022-10-29T00:07:29.693Z,110.38
2022-10-29T00:17:31.291Z,118.53
2022-10-29T00:27:33.114Z,103.28
2022-10-29T00:37:36.135Z,92.22
2022-10-29T00:47:38.254Z,100.53
2022-10-29T00:57:43.633Z,106.45
2022-10-29T01:07:47.727Z,103.10
2022-10-29T01:18:27.774Z,105.25
2022-10-29T01:29:21.928Z,91.03
2022-10-29T01:49:42.954Z,92.85
2022-10-29T01:59:55.638Z,108.03
2022-10-29T02:20:16.162Z,145.85
2022-10-29T02:30:18.587Z,153.30
2022-10-29T02:40:21.120Z,143.10
2022-10-29T02:50:22.705Z,136.88
2022-10-29T03:00:24.324Z,116.90
2022-10-29T03:10:25.924Z,111.10
2022-10-29T03:20:27.585Z,104.03
2022-10-29T03:30:32.292Z,94.28
2022-10-29T03:40:33.862Z,86.20
2022-10-29T03:50:39.649Z,89.47
2022-10-29T04:00:42.489Z,92.53
2022-10-29T04:10:45.821Z,94.57
2022-10-29T04:23:01.925Z,93.15
2022-10-29T04:31:12.299Z,97.22
2022-10-29T04:41:14.938Z,100.78
2022-10-29T04:51:22.063Z,88.10
2022-10-29T05:01:25.297Z,86.85
2022-10-29T05:11:27.100Z,87.43
2022-10-29T05:21:32.592Z,100.28
2022-10-29T05:31:34.237Z,100.78
2022-10-29T05:41:35.950Z,90.00
2022-10-29T05:51:37.774Z,81.15
2022-10-29T06:01:40.540Z,86.68
2022-10-29T06:11:47.311Z,110.75
2022-10-29T06:21:52.540Z,114.45
2022-10-29T06:31:56.776Z,123.93
2022-10-29T06:42:00.440Z,113.03
2022-10-29T06:52:02.018Z,105.32
2022-10-29T07:02:03.730Z,97.93
2022-10-29T07:12:06.019Z,102.47
2022-10-29T07:22:10.785Z,100.77
2022-10-29T07:32:12.399Z,104.72
2022-10-29T07:42:14.037Z,112.70
2022-10-29T07:52:16.762Z,99.40
2022-10-29T08:02:19.467Z,94.80
2022-10-29T08:12:21.568Z,89.80
2022-10-29T08:22:24.430Z,73.93
2022-10-29T08:32:35.758Z,85.25
2022-10-29T08:42:58.562Z,94.88
2022-10-29T08:53:22.325Z,105.10
2022-10-29T09:13:50.887Z,103.78
2022-10-29T09:24:05.455Z,102.82
2022-10-29T09:34:18.044Z,89.10
2022-10-29T09:44:38.059Z,71.83
2022-10-29T09:54:39.858Z,87.60
2022-10-29T10:04:49.220Z,91.97
2022-10-29T10:15:06.746Z,85.63
2022-10-29T10:25:32.796Z,82.78
2022-10-29T10:35:35.817Z,68.57
2022-10-29T10:45:40.266Z,58.70
2022-10-29T10:55:49.074Z,70.20
2022-10-29T11:06:08.488Z,61.05
2022-10-29T11:16:31.244Z,59.95
2022-10-29T11:26:36.680Z,65.47
2022-10-29T11:36:47.159Z,61.00
2022-10-29T11:47:28.906Z,65.72
2022-10-29T11:57:55.724Z,58.28
2022-10-29T12:08:03.330Z,62.13
2022-10-29T12:18:23.328Z,59.08
2022-10-29T12:28:34.653Z,48.67
2022-10-29T12:38:45.582Z,50.63
2022-10-29T12:49:05.638Z,53.40
2022-10-29T12:59:27.369Z,56.25
2022-10-29T13:09:36.826Z,61.85
2022-10-29T13:20:09.073Z,64.40
2022-10-29T13:30:27.175Z,76.45
2022-10-29T13:40:32.622Z,64.65
2022-10-29T13:50:35.322Z,62.05
2022-10-29T14:00:38.706Z,67.45
2022-10-29T14:10:40.324Z,62.53
2022-10-29T14:20:57.265Z,50.45
2022-10-29T14:31:21.918Z,45.38
2022-10-29T14:41:25.730Z,44.38
2022-10-29T14:51:28.439Z,47.75
2022-10-29T15:01:31.429Z,46.85
2022-10-29T15:11:47.777Z,45.38
2022-10-29T15:21:50.282Z,51.90
2022-10-29T15:31:55.850Z,52.07
2022-10-29T15:42:01.188Z,49.03
2022-10-29T15:52:09.071Z,48.35
2022-10-29T16:02:17.509Z,47.72
2022-10-29T16:12:21.811Z,49.38
2022-10-29T16:22:30.954Z,45.30
2022-10-29T16:32:33.002Z,45.40
2022-10-29T16:42:36.305Z,42.77
2022-10-29T16:52:39.894Z,49.40
2022-10-29T17:02:44.814Z,47.97
2022-10-29T17:12:49.572Z,55.03
2022-10-29T17:22:53.731Z,59.03
2022-10-29T17:32:55.763Z,55.58
2022-10-29T17:42:59.586Z,59.10
2022-10-29T17:53:02.146Z,58.00
2022-10-29T18:03:05.148Z,67.20
2022-10-29T18:13:07.530Z,66.05
2022-10-29T18:23:10.293Z,82.40
2022-10-29T18:33:13.323Z,78.13
2022-10-29T18:43:14.982Z,83.05
2022-10-29T18:53:17.365Z,90.80
2022-10-29T19:03:20.368Z,90.33
2022-10-29T19:13:24.057Z,97.82
2022-10-29T19:23:26.271Z,89.78
2022-10-29T19:33:30.810Z,94.70
2022-10-29T19:43:32.919Z,98.72
2022-10-29T19:53:37.412Z,105.40
2022-10-29T20:03:39.032Z,96.60
2022-10-29T20:13:41.095Z,89.40
2022-10-29T20:23:43.577Z,144.83
2022-10-29T20:33:56.796Z,122.30
2022-10-29T20:54:01.578Z,116.03
2022-10-29T21:04:04.396Z,117.40
2022-10-29T21:14:08.775Z,124.18
2022-10-29T21:24:17.912Z,114.28
2022-10-29T21:34:19.557Z,126.30
2022-10-29T21:44:21.789Z,127.65
2022-10-29T21:54:25.791Z,127.33
2022-10-29T22:04:30.089Z,117.25
2022-10-29T22:14:31.694Z,126.43
2022-10-29T22:24:34.562Z,104.22
2022-10-29T22:44:39.163Z,71.77
2022-10-29T22:54:41.828Z,71.82
2022-10-29T23:04:43.385Z,77.25
2022-10-29T23:14:45.009Z,80.63
2022-10-29T23:24:52.468Z,74.38
2022-10-29T23:34:54.097Z,74.10
2022-10-29T23:44:56.293Z,70.47
2022-10-29T23:54:59.486Z,68.65
